Terminal Aerodrome Forecast
Issued by NWS Cleveland, OH

Home | Current Version | Previous Version | Graphics & Text | Print | Product List | Glossary Off
Versions: 1 2 3 4 5 6 7 8 9 10 11 12 13 14 15 16 17 18 19 20

000
FTUS41 KCLE 210300 AAA
TAFYNG
TAF AMD
KYNG 210326Z 2103/2124 22012G20KT P6SM BKN050
     FM211400 22015G22KT P6SM SCT035 BKN050
     FM211700 24020G35KT P6SM BKN060
     FM212300 24012KT P6SM BKN080=

USA.gov is the U.S. government's official web portal to all federal, state and local government web resources and services.